Time;durP1;ratioP1;P1;durP2;ratioP2;P2;SDS_P1;SDS_P2;PMS_P1;PMS_P2;Temp;Humidity;BMP_temperature;BMP_pressure;BME280_temperature;BME280_humidity;BME280_pressure;Samples;Min_cycle;Max_cycle;Signal;HPM_P1;HPM_P2
2022/08/14 00:02:25;;;;;;;;;;;;;;;22.60;84.22;101299.84;5095668;28;19946;-38
2022/08/14 00:04:54;;;;;;;;;;;;;;;22.55;84.65;101297.28;5094774;28;19920;-36
2022/08/14 00:07:21;;;;;;;;;;;;;;;22.50;84.90;101295.56;5093779;28;19981;-33
2022/08/14 00:09:49;;;;;;;;;;;;;;;22.47;85.80;101289.78;5093503;28;19924;-35
2022/08/14 00:12:38;;;;;;;;;;;;;;;22.41;86.23;101285.56;5093020;28;19920;-31
2022/08/14 00:15:10;;;;;;;;;;;;;;;22.37;85.82;101282.66;5083098;28;19920;-30
2022/08/14 00:17:41;;;;;;;;;;;;;;;22.33;86.60;101284.56;5093487;28;20448;-38
2022/08/14 00:20:21;;;;;;;;;;;;;;;22.28;86.53;101282.00;5082366;28;19923;-30
2022/08/14 00:22:57;;;;;;;;;;;;;;;22.24;86.80;101279.06;5094634;28;20392;-31
2022/08/14 00:25:39;;;;;;;;;;;;;;;22.20;87.40;101285.84;5086485;28;19924;-30
2022/08/14 00:28:10;;;;;;;;;;;;;;;22.15;88.20;101286.97;5093943;28;19924;-35
2022/08/14 00:30:46;;;;;;;;;;;;;;;22.12;87.99;101284.03;5095142;28;19924;-30
2022/08/14 00:33:14;;;;;;;;;;;;;;;22.08;87.70;101277.44;5093325;28;20368;-31
2022/08/14 00:35:43;;;;;;;;;;;;;;;22.04;87.18;101270.81;5095206;28;20303;-34
2022/08/14 00:38:31;;;;;;;;;;;;;;;22.00;87.87;101262.22;5094911;28;19923;-30
2022/08/14 00:41:01;;;;;;;;;;;;;;;21.97;87.00;101268.63;5094239;28;20280;-36
2022/08/14 00:43:29;;;;;;;;;;;;;;;21.95;87.15;101268.97;5094874;28;19927;-32
2022/08/14 00:46:02;;;;;;;;;;;;;;;21.93;87.10;101259.16;5094796;28;19923;-29
2022/08/14 00:48:35;;;;;;;;;;;;;;;21.90;87.26;101257.06;5093987;28;19920;-37
2022/08/14 00:51:07;;;;;;;;;;;;;;;21.88;87.02;101268.78;5094995;28;19956;-34
2022/08/14 00:53:35;;;;;;;;;;;;;;;21.86;87.30;101265.47;5094464;28;20327;-31
2022/08/14 00:56:06;;;;;;;;;;;;;;;21.83;86.93;101260.53;5094211;28;19932;-30
2022/08/14 00:58:35;;;;;;;;;;;;;;;21.82;86.64;101249.53;5093805;28;19920;-30
2022/08/14 01:01:15;;;;;;;;;;;;;;;21.81;87.08;101245.03;5091098;28;19927;-38
2022/08/14 01:03:44;;;;;;;;;;;;;;;21.79;87.17;101241.72;5094514;28;20410;-32
2022/08/14 01:06:12;;;;;;;;;;;;;;;21.77;87.41;101250.66;5093453;28;19965;-36
2022/08/14 01:08:42;;;;;;;;;;;;;;;21.75;87.22;101243.69;5093934;28;19920;-31
2022/08/14 01:11:24;;;;;;;;;;;;;;;21.73;87.28;101229.00;5093922;28;20293;-31
2022/08/14 01:14:00;;;;;;;;;;;;;;;21.71;87.67;101237.91;5094518;28;19920;-32
2022/08/14 01:16:32;;;;;;;;;;;;;;;21.69;87.98;101233.78;5093526;28;20448;-35
2022/08/14 01:21:47;;;;;;;;;;;;;;;21.65;88.27;101222.31;5054105;28;20278;-31
2022/08/14 01:24:20;;;;;;;;;;;;;;;21.62;88.71;101226.69;5093613;28;20014;-30
2022/08/14 01:26:58;;;;;;;;;;;;;;;21.60;88.48;101225.41;5093828;28;19919;-32
2022/08/14 01:29:28;;;;;;;;;;;;;;;21.59;88.53;101218.91;5093416;28;19920;-31
2022/08/14 01:32:17;;;;;;;;;;;;;;;21.57;88.63;101221.31;5091201;28;19924;-34
2022/08/14 01:34:51;;;;;;;;;;;;;;;21.54;88.71;101213.53;5093959;28;19950;-32
2022/08/14 01:37:43;;;;;;;;;;;;;;;21.53;89.37;101208.19;5092219;28;20335;-32
2022/08/14 01:40:13;;;;;;;;;;;;;;;21.51;89.24;101208.56;5093777;28;20030;-31
2022/08/14 01:42:47;;;;;;;;;;;;;;;21.47;88.97;101206.81;5093969;28;20007;-31
2022/08/14 01:45:16;;;;;;;;;;;;;;;21.45;89.00;101201.50;5092790;28;20285;-30
2022/08/14 01:47:51;;;;;;;;;;;;;;;21.43;89.52;101201.03;5093777;28;20438;-34
2022/08/14 01:50:30;;;;;;;;;;;;;;;21.40;89.37;101190.41;5092933;28;19935;-36
2022/08/14 01:53:01;;;;;;;;;;;;;;;21.38;89.77;101192.81;5093805;28;20380;-32
2022/08/14 01:55:30;;;;;;;;;;;;;;;21.35;89.92;101187.84;5093394;28;19926;-40
2022/08/14 01:57:59;;;;;;;;;;;;;;;21.31;89.92;101182.06;5092561;28;19926;-33
2022/08/14 02:00:52;;;;;;;;;;;;;;;21.28;89.89;101179.13;5093455;28;19927;-34
2022/08/14 02:03:22;;;;;;;;;;;;;;;21.26;90.34;101184.34;5093691;28;19973;-34
2022/08/14 02:05:49;;;;;;;;;;;;;;;21.24;90.55;101181.03;5092603;28;20029;-36
2022/08/14 02:08:18;;;;;;;;;;;;;;;21.21;90.71;101182.59;5093325;28;20292;-35
2022/08/14 02:11:22;;;;;;;;;;;;;;;21.19;90.86;101178.44;5093069;28;19931;-34
2022/08/14 02:13:52;;;;;;;;;;;;;;;21.16;90.93;101174.34;5091559;28;19942;-33
2022/08/14 02:16:24;;;;;;;;;;;;;;;21.15;91.78;101174.69;5092951;28;19920;-31
2022/08/14 02:18:53;;;;;;;;;;;;;;;21.12;91.87;101172.56;5092601;28;19920;-31
2022/08/14 02:21:21;;;;;;;;;;;;;;;21.10;92.02;101160.75;5093160;28;19939;-31
2022/08/14 02:23:53;;;;;;;;;;;;;;;21.07;92.43;101165.16;5093160;28;19973;-32
2022/08/14 02:26:22;;;;;;;;;;;;;;;21.06;92.54;101162.66;5092549;28;19954;-34
2022/08/14 02:28:58;;;;;;;;;;;;;;;21.05;93.23;101164.69;5092134;28;19982;-30
2022/08/14 02:31:28;;;;;;;;;;;;;;;21.03;93.37;101166.22;5092984;28;20031;-31
2022/08/14 02:34:12;;;;;;;;;;;;;;;21.00;92.87;101162.09;5092126;28;19920;-31
2022/08/14 02:36:51;;;;;;;;;;;;;;;20.98;93.00;101151.13;5092888;28;20277;-32
2022/08/14 02:39:36;;;;;;;;;;;;;;;20.95;93.14;101154.69;5090116;28;20281;-31
2022/08/14 02:42:05;;;;;;;;;;;;;;;20.94;93.21;101155.06;5092590;28;19920;-31
2022/08/14 02:44:39;;;;;;;;;;;;;;;20.92;93.74;101158.25;5092907;28;19920;-31
2022/08/14 02:47:09;;;;;;;;;;;;;;;20.91;94.03;101155.78;5092045;28;19924;-34
2022/08/14 02:49:45;;;;;;;;;;;;;;;20.88;93.54;101150.81;5089263;28;19927;-32
2022/08/14 02:52:20;;;;;;;;;;;;;;;20.86;93.39;101153.19;5092534;28;19972;-30
2022/08/14 02:55:09;;;;;;;;;;;;;;;20.84;93.79;101150.72;5089952;28;19923;-36
2022/08/14 02:57:39;;;;;;;;;;;;;;;20.81;94.11;101144.94;5092445;28;19928;-39
2022/08/14 03:00:08;;;;;;;;;;;;;;;20.78;94.40;101140.84;5089138;28;19928;-30
2022/08/14 03:02:36;;;;;;;;;;;;;;;20.75;94.12;101137.91;5091668;28;19924;-35
2022/08/14 03:05:25;;;;;;;;;;;;;;;20.71;94.82;101134.94;5090104;28;19950;-40
2022/08/14 03:07:53;;;;;;;;;;;;;;;20.70;95.02;101138.97;5091443;28;20337;-30
2022/08/14 03:10:23;;;;;;;;;;;;;;;20.68;95.19;101137.69;5092551;28;19920;-34
2022/08/14 03:12:58;;;;;;;;;;;;;;;20.66;95.21;101140.06;5092288;28;20357;-35
2022/08/14 03:15:27;;;;;;;;;;;;;;;20.63;94.91;101136.75;5090543;28;20284;-31
2022/08/14 03:17:54;;;;;;;;;;;;;;;20.60;95.34;101133.81;5092443;28;19927;-30
2022/08/14 03:20:27;;;;;;;;;;;;;;;20.59;95.64;101137.81;5091993;28;19920;-31
2022/08/14 03:22:54;;;;;;;;;;;;;;;20.57;96.05;101134.56;5093850;28;19930;-37
2022/08/14 03:25:23;;;;;;;;;;;;;;;20.55;96.10;101131.25;5096038;28;20507;-30
2022/08/14 03:27:51;;;;;;;;;;;;;;;20.53;96.03;101133.59;5096528;28;20280;-35
2022/08/14 03:30:25;;;;;;;;;;;;;;;20.51;96.28;101127.47;5095755;28;19962;-38
2022/08/14 03:33:08;;;;;;;;;;;;;;;20.49;96.32;101127.00;5076424;28;19978;-32
2022/08/14 03:35:38;;;;;;;;;;;;;;;20.46;96.33;101127.72;5092863;28;19931;-32
2022/08/14 03:38:26;;;;;;;;;;;;;;;20.44;96.30;101118.75;5076408;28;19920;-30
2022/08/14 03:41:16;;;;;;;;;;;;;;;20.41;97.10;101119.47;5096111;28;19966;-39
2022/08/14 03:43:44;;;;;;;;;;;;;;;20.41;97.10;101123.13;5095459;28;19927;-34
2022/08/14 03:46:12;;;;;;;;;;;;;;;20.38;97.25;101109.69;5095789;28;20373;-30
2022/08/14 03:49:01;;;;;;;;;;;;;;;20.38;97.17;101108.88;5096349;28;19927;-31
2022/08/14 03:51:30;;;;;;;;;;;;;;;20.34;97.05;101113.56;5093924;28;19920;-34
2022/08/14 03:53:59;;;;;;;;;;;;;;;20.33;97.43;101117.59;5094093;28;20018;-33
2022/08/14 03:56:28;;;;;;;;;;;;;;;20.33;97.91;101117.59;5093714;28;20308;-32
2022/08/14 03:58:59;;;;;;;;;;;;;;;20.29;97.82;101118.31;5095198;28;19924;-32
2022/08/14 04:01:26;;;;;;;;;;;;;;;20.28;98.08;101110.16;5095438;28;19923;-31
2022/08/14 04:04:08;;;;;;;;;;;;;;;20.26;97.82;101110.50;5075074;28;19969;-31
2022/08/14 04:06:37;;;;;;;;;;;;;;;20.25;97.96;101111.69;5091953;28;19920;-37
2022/08/14 04:09:15;;;;;;;;;;;;;;;20.24;98.43;101109.22;5075434;28;20413;-34
2022/08/14 04:11:45;;;;;;;;;;;;;;;20.22;99.24;101115.25;5092123;28;20377;-37
2022/08/14 04:14:13;;;;;;;;;;;;;;;20.20;98.68;101108.28;5095549;28;20320;-32
2022/08/14 04:16:46;;;;;;;;;;;;;;;20.19;98.84;101110.28;5095622;28;19920;-31
2022/08/14 04:19:22;;;;;;;;;;;;;;;20.18;99.39;101114.28;5094601;28;20354;-36
2022/08/14 04:21:51;;;;;;;;;;;;;;;20.17;99.49;101109.03;5089000;28;20022;-34
2022/08/14 04:24:30;;;;;;;;;;;;;;;20.16;100.00;101107.38;5095064;28;19924;-30
2022/08/14 04:27:07;;;;;;;;;;;;;;;20.14;100.00;101104.88;5093865;28;19920;-31
2022/08/14 04:29:37;;;;;;;;;;;;;;;20.13;100.00;101106.06;5095522;28;20015;-34
2022/08/14 04:32:06;;;;;;;;;;;;;;;20.11;100.00;101105.59;5093598;28;19927;-32
2022/08/14 04:34:55;;;;;;;;;;;;;;;20.11;100.00;101104.78;5094295;28;19937;-33
2022/08/14 04:45:44;;;;;;;;;;;;;;;20.11;100.00;101090.59;5095238;28;19943;-33
2022/08/14 04:48:19;;;;;;;;;;;;;;;20.10;100.00;101086.94;5093730;28;19920;-36
2022/08/14 04:51:08;;;;;;;;;;;;;;;20.11;100.00;101087.78;5094976;28;19951;-31
2022/08/14 04:53:37;;;;;;;;;;;;;;;20.12;100.00;101095.91;5093986;28;20308;-31
2022/08/14 04:56:10;;;;;;;;;;;;;;;20.13;100.00;101086.22;5094870;28;19927;-31
2022/08/14 04:59:03;;;;;;;;;;;;;;;20.15;100.00;101083.88;5094232;28;19924;-35
2022/08/14 05:01:37;;;;;;;;;;;;;;;20.15;100.00;101083.88;5094232;28;19967;-31
2022/08/14 05:04:07;;;;;;;;;;;;;;;20.17;100.00;101081.50;5092664;28;20395;-32
2022/08/14 05:06:35;;;;;;;;;;;;;;;20.20;100.00;101094.09;5094740;28;20373;-32
2022/08/14 05:09:06;;;;;;;;;;;;;;;20.20;100.00;101086.44;5093695;28;19926;-31
2022/08/14 05:11:41;;;;;;;;;;;;;;;20.21;100.00;101082.41;5094543;28;19926;-34
2022/08/14 05:14:12;;;;;;;;;;;;;;;20.24;100.00;101076.03;5094310;28;20373;-31
2022/08/14 05:17:00;;;;;;;;;;;;;;;20.28;100.00;101076.97;5076084;28;19924;-33
2022/08/14 05:19:28;;;;;;;;;;;;;;;20.32;100.00;101076.25;5090772;28;20311;-31
2022/08/14 05:21:59;;;;;;;;;;;;;;;20.33;100.00;101069.41;5092543;28;19935;-30
2022/08/14 05:24:44;;;;;;;;;;;;;;;20.35;100.00;101069.88;5093180;28;20026;-34
2022/08/14 05:27:19;;;;;;;;;;;;;;;20.39;100.00;101070.81;5093151;28;19920;-36
2022/08/14 05:29:52;;;;;;;;;;;;;;;20.41;100.00;101063.59;5092264;28;19931;-32
2022/08/14 05:32:22;;;;;;;;;;;;;;;20.44;100.00;101073.38;5093273;28;19920;-40
2022/08/14 05:34:56;;;;;;;;;;;;;;;20.47;100.00;101067.81;5092727;28;19985;-40
2022/08/14 05:37:25;;;;;;;;;;;;;;;20.51;100.00;101074.44;5092660;28;20277;-31
2022/08/14 05:39:53;;;;;;;;;;;;;;;20.56;100.00;101074.19;5092386;28;19925;-31
2022/08/14 05:42:21;;;;;;;;;;;;;;;20.59;100.00;101069.75;5092972;28;19920;-31
2022/08/14 05:45:07;;;;;;;;;;;;;;;20.64;100.00;101066.69;5092502;28;19973;-33
2022/08/14 05:47:40;;;;;;;;;;;;;;;20.67;100.00;101057.44;5093268;28;19950;-37
2022/08/14 05:50:11;;;;;;;;;;;;;;;20.71;100.00;101055.53;5091470;28;20024;-33
2022/08/14 05:52:46;;;;;;;;;;;;;;;20.78;100.00;101055.75;5092882;28;19919;-31
2022/08/14 05:55:14;;;;;;;;;;;;;;;20.83;100.00;101052.63;5092192;28;19924;-31
2022/08/14 05:57:47;;;;;;;;;;;;;;;20.88;100.00;101046.69;5091659;28;19927;-35
2022/08/14 06:00:17;;;;;;;;;;;;;;;20.94;100.00;101050.91;5092331;28;19994;-31
2022/08/14 06:02:56;;;;;;;;;;;;;;;21.00;100.00;101059.94;5072282;28;19924;-38
2022/08/14 06:05:24;;;;;;;;;;;;;;;21.06;100.00;101055.66;5086372;28;19920;-36
2022/08/14 06:07:55;;;;;;;;;;;;;;;21.13;100.00;101052.19;5092262;28;19923;-37
2022/08/14 06:10:23;;;;;;;;;;;;;;;21.20;100.00;101041.88;5092626;28;19947;-32
2022/08/14 06:12:54;;;;;;;;;;;;;;;21.27;100.00;101042.06;5091763;28;19965;-31
2022/08/14 06:15:25;;;;;;;;;;;;;;;21.34;100.00;101044.25;5092041;28;19973;-32
2022/08/14 06:17:58;;;;;;;;;;;;;;;21.42;100.00;101048.06;5091568;28;19924;-33
2022/08/14 06:20:27;;;;;;;;;;;;;;;21.50;100.00;101045.06;5089657;28;19978;-33
2022/08/14 06:22:56;;;;;;;;;;;;;;;21.57;100.00;101042.41;5092067;28;20029;-31
2022/08/14 06:25:25;;;;;;;;;;;;;;;21.66;100.00;101040.16;5091169;28;19920;-37
2022/08/14 06:27:54;;;;;;;;;;;;;;;21.80;100.00;101038.81;5091979;28;19924;-33
2022/08/14 06:30:27;;;;;;;;;;;;;;;21.91;100.00;101045.59;5091999;28;19923;-32
2022/08/14 06:33:13;;;;;;;;;;;;;;;22.09;100.00;101038.31;5091015;28;19920;-31
2022/08/14 06:35:42;;;;;;;;;;;;;;;22.35;100.00;101037.66;5091475;28;19924;-36
2022/08/14 06:38:15;;;;;;;;;;;;;;;22.63;100.00;101041.03;5091985;28;20399;-32
2022/08/14 06:40:45;;;;;;;;;;;;;;;22.95;100.00;101033.16;5090812;28;20391;-31
2022/08/14 06:43:12;;;;;;;;;;;;;;;23.29;100.00;101042.69;5091666;28;19923;-35
2022/08/14 06:45:44;;;;;;;;;;;;;;;23.69;99.35;101039.28;5091195;28;20338;-32
2022/08/14 06:48:22;;;;;;;;;;;;;;;24.11;95.75;101041.09;5091920;28;20369;-33
2022/08/14 06:50:50;;;;;;;;;;;;;;;24.49;93.29;101036.28;5091663;28;20014;-31
2022/08/14 06:53:18;;;;;;;;;;;;;;;25.00;92.20;101034.41;5090982;28;19931;-40
2022/08/14 06:55:46;;;;;;;;;;;;;;;25.51;87.14;101041.41;5091370;28;20399;-31
2022/08/14 06:58:28;;;;;;;;;;;;;;;25.91;83.22;101037.59;5080347;28;20288;-40
2022/08/14 07:06:50;;;;;;;;;;;;;;;27.47;73.11;101042.97;5090924;28;19965;-32
2022/08/14 07:09:21;;;;;;;;;;;;;;;27.87;71.72;101039.66;5091519;28;20312;-31
2022/08/14 07:11:50;;;;;;;;;;;;;;;28.30;68.61;101040.38;5091295;28;19962;-35
2022/08/14 07:14:17;;;;;;;;;;;;;;;28.53;64.85;101030.44;5090813;28;20009;-32
2022/08/14 07:16:46;;;;;;;;;;;;;;;28.71;63.93;101025.41;5090623;28;20289;-32
2022/08/14 07:19:16;;;;;;;;;;;;;;;28.82;61.89;101020.44;5089469;28;19927;-32
2022/08/14 07:21:48;;;;;;;;;;;;;;;29.14;62.76;101015.28;5090269;28;19919;-34
2022/08/14 07:24:17;;;;;;;;;;;;;;;29.45;58.45;101013.41;5091475;28;19992;-32
2022/08/14 07:26:52;;;;;;;;;;;;;;;29.69;57.64;101020.16;5090727;28;19977;-32
2022/08/14 07:29:21;;;;;;;;;;;;;;;29.92;57.13;101012.91;5090286;28;19924;-37
2022/08/14 07:31:54;;;;;;;;;;;;;;;30.41;55.61;101018.06;5091083;28;19920;-40
2022/08/14 07:34:22;;;;;;;;;;;;;;;31.05;54.29;101025.81;5091622;28;20380;-32
2022/08/14 07:37:03;;;;;;;;;;;;;;;31.56;50.35;101023.78;5090511;28;19980;-32
2022/08/14 07:39:31;;;;;;;;;;;;;;;31.74;47.69;101027.16;5090851;28;19931;-38
2022/08/14 07:42:01;;;;;;;;;;;;;;;31.78;47.78;101021.31;5090610;28;19920;-36
2022/08/14 07:44:29;;;;;;;;;;;;;;;31.76;49.03;101015.19;5090591;28;19992;-38
2022/08/14 07:47:15;;;;;;;;;;;;;;;31.88;49.10;101019.47;5092399;28;19966;-40
2022/08/14 07:49:51;;;;;;;;;;;;;;;32.14;48.12;101021.44;5087245;28;20053;-40
2022/08/14 07:52:22;;;;;;;;;;;;;;;32.38;47.80;101028.75;5091781;28;19973;-32
2022/08/14 07:55:08;;;;;;;;;;;;;;;32.76;46.65;101025.50;5090399;28;20006;-33
2022/08/14 07:57:37;;;;;;;;;;;;;;;33.20;44.93;101021.94;5091167;28;19943;-35
2022/08/14 08:00:11;;;;;;;;;;;;;;;33.29;42.11;101015.56;5088807;28;19920;-36
2022/08/14 08:02:59;;;;;;;;;;;;;;;33.14;40.37;101020.03;5091752;28;19928;-32
2022/08/14 08:05:27;;;;;;;;;;;;;;;33.23;42.13;101017.31;5090957;28;19924;-33
2022/08/14 08:07:54;;;;;;;;;;;;;;;33.68;43.12;101022.38;5092242;28;19926;-33
2022/08/14 08:10:32;;;;;;;;;;;;;;;34.21;39.27;101015.91;5094908;28;19961;-32
2022/08/14 08:13:20;;;;;;;;;;;;;;;34.46;39.13;101011.50;5095402;28;19928;-33
2022/08/14 08:15:52;;;;;;;;;;;;;;;34.46;37.49;101008.59;5095688;28;19996;-32
2022/08/14 08:18:21;;;;;;;;;;;;;;;34.51;37.38;101008.84;5094637;28;19955;-40
2022/08/14 08:20:58;;;;;;;;;;;;;;;34.51;36.62;101008.84;5095472;28;19955;-34
2022/08/14 08:23:28;;;;;;;;;;;;;;;34.58;37.42;101004.88;5095023;28;19924;-33
2022/08/14 08:26:07;;;;;;;;;;;;;;;34.58;36.64;101006.97;5092814;28;19930;-36
2022/08/14 08:28:35;;;;;;;;;;;;;;;34.67;36.24;100999.22;5095200;28;19919;-32
2022/08/14 08:31:04;;;;;;;;;;;;;;;34.85;38.08;100992.88;5095224;28;19943;-37
2022/08/14 08:33:35;;;;;;;;;;;;;;;35.09;35.95;100988.34;5094493;28;19928;-33
2022/08/14 08:36:06;;;;;;;;;;;;;;;35.14;35.96;100978.25;5094817;28;19977;-34
2022/08/14 08:38:34;;;;;;;;;;;;;;;35.06;35.53;100977.69;5094765;28;20267;-37
2022/08/14 08:41:23;;;;;;;;;;;;;;;34.88;36.40;100980.38;5094627;28;19920;-33
2022/08/14 08:43:53;;;;;;;;;;;;;;;35.12;37.27;100975.81;5095150;28;19920;-32
2022/08/14 08:46:22;;;;;;;;;;;;;;;35.46;35.53;100972.19;5093660;28;20297;-42
2022/08/14 08:48:53;;;;;;;;;;;;;;;35.76;36.72;100967.81;5094934;28;19920;-33
2022/08/14 08:51:21;;;;;;;;;;;;;;;36.29;35.61;100961.28;5094483;28;19927;-35
2022/08/14 08:53:58;;;;;;;;;;;;;;;36.64;34.08;100956.94;5094415;28;19920;-32
2022/08/14 08:56:36;;;;;;;;;;;;;;;36.68;33.16;100956.81;5094036;28;19924;-35
2022/08/14 08:59:17;;;;;;;;;;;;;;;36.67;33.99;100955.19;5093686;28;20292;-38
2022/08/14 09:01:47;;;;;;;;;;;;;;;36.85;33.40;100955.28;5093473;28;19965;-40
2022/08/14 09:04:24;;;;;;;;;;;;;;;36.89;32.21;100956.75;5094186;28;19924;-43
2022/08/14 09:06:53;;;;;;;;;;;;;;;36.86;32.96;100948.97;5093082;28;19924;-40
2022/08/14 09:09:49;;;;;;;;;;;;;;;36.85;33.22;100961.09;5094302;28;20383;-41
2022/08/14 09:12:28;;;;;;;;;;;;;;;36.83;32.46;100949.13;5093155;28;19920;-40
2022/08/14 09:15:00;;;;;;;;;;;;;;;36.89;33.42;100947.22;5093525;28;19920;-33
2022/08/14 09:17:28;;;;;;;;;;;;;;;36.92;33.21;100952.09;5094241;28;19947;-33
2022/08/14 09:19:58;;;;;;;;;;;;;;;36.92;32.44;100943.34;5093333;28;19927;-32
2022/08/14 09:22:30;;;;;;;;;;;;;;;36.62;31.87;100950.78;5093387;28;20274;-34
2022/08/14 09:25:02;;;;;;;;;;;;;;;36.31;32.76;100947.91;5094273;28;19930;-36
2022/08/14 09:27:34;;;;;;;;;;;;;;;36.14;31.77;100947.28;5093150;28;20015;-33
2022/08/14 09:30:01;;;;;;;;;;;;;;;35.90;33.27;100955.66;5094432;28;19926;-32
2022/08/14 09:32:56;;;;;;;;;;;;;;;35.73;31.93;100956.28;5093819;28;19974;-33
2022/08/14 09:35:32;;;;;;;;;;;;;;;35.82;32.62;100950.56;5093474;28;20019;-34
2022/08/14 09:38:06;;;;;;;;;;;;;;;35.68;31.77;100942.38;5093711;28;19928;-39
2022/08/14 09:40:50;;;;;;;;;;;;;;;35.74;33.63;100950.03;5093927;28;19923;-33
2022/08/14 09:43:28;;;;;;;;;;;;;;;35.98;32.76;100943.75;5092900;28;19931;-37
2022/08/14 09:45:57;;;;;;;;;;;;;;;36.46;30.74;100945.22;5093904;28;19927;-34
2022/08/14 09:48:29;;;;;;;;;;;;;;;36.69;31.11;100940.97;5093495;28;19927;-36
2022/08/14 09:50:59;;;;;;;;;;;;;;;36.66;29.86;100930.28;5074571;28;19920;-38
2022/08/14 09:53:40;;;;;;;;;;;;;;;36.68;30.99;100934.34;5091681;28;19920;-33
2022/08/14 09:56:28;;;;;;;;;;;;;;;36.45;29.80;100932.78;5091605;28;20356;-38
2022/08/14 09:58:58;;;;;;;;;;;;;;;36.06;29.88;100918.97;5092487;28;20038;-33
2022/08/14 10:01:35;;;;;;;;;;;;;;;36.09;31.31;100920.91;5092330;28;19920;-33
2022/08/14 10:04:06;;;;;;;;;;;;;;;36.17;30.29;100928.09;5091508;28;19928;-32
2022/08/14 10:06:55;;;;;;;;;;;;;;;36.32;31.20;100911.72;5092281;28;19920;-35
2022/08/14 10:09:22;;;;;;;;;;;;;;;36.36;31.26;100917.41;5088340;28;20035;-35
2022/08/14 10:11:56;;;;;;;;;;;;;;;36.38;30.58;100914.81;5091304;28;19928;-33
2022/08/14 10:14:29;;;;;;;;;;;;;;;36.47;30.17;100906.94;5090901;28;19966;-33
2022/08/14 10:17:03;;;;;;;;;;;;;;;36.57;30.75;100908.59;5092097;28;20036;-33
2022/08/14 10:19:32;;;;;;;;;;;;;;;36.87;30.37;100898.25;5091795;28;20026;-33
2022/08/14 10:22:07;;;;;;;;;;;;;;;37.18;29.59;100894.41;5092733;28;19965;-34
2022/08/14 10:24:54;;;;;;;;;;;;;;;37.35;28.87;100883.31;5091451;28;19920;-41
2022/08/14 10:27:23;;;;;;;;;;;;;;;37.58;28.57;100882.66;5090208;28;20326;-33
2022/08/14 10:29:54;;;;;;;;;;;;;;;37.70;27.81;100892.56;5091514;28;19924;-33
2022/08/14 10:32:25;;;;;;;;;;;;;;;37.78;27.40;100882.16;5090296;28;20015;-41
2022/08/14 10:35:07;;;;;;;;;;;;;;;37.87;27.12;100873.44;5091203;28;19973;-40
2022/08/14 10:37:45;;;;;;;;;;;;;;;37.97;27.57;100865.50;5091794;28;19923;-33
2022/08/14 10:40:14;;;;;;;;;;;;;;;37.97;27.44;100866.31;5090690;28;19920;-33
2022/08/14 10:43:02;;;;;;;;;;;;;;;37.67;27.51;100849.84;5091501;28;19923;-36
2022/08/14 10:45:31;;;;;;;;;;;;;;;37.47;28.22;100856.13;5091443;28;19920;-33
2022/08/14 10:48:02;;;;;;;;;;;;;;;37.36;28.17;100847.09;5092908;28;19950;-39
2022/08/14 10:50:52;;;;;;;;;;;;;;;37.43;28.12;100850.47;5089667;28;19947;-38
2022/08/14 10:53:35;;;;;;;;;;;;;;;37.51;28.14;100845.13;5091814;28;20385;-34
2022/08/14 10:56:08;;;;;;;;;;;;;;;37.55;27.62;100842.88;5090221;28;19931;-34
2022/08/14 10:59:00;;;;;;;;;;;;;;;37.28;27.52;100839.97;5091877;28;19924;-34
2022/08/14 11:01:30;;;;;;;;;;;;;;;36.91;27.69;100842.81;5092647;28;19920;-34
2022/08/14 11:03:59;;;;;;;;;;;;;;;36.76;28.36;100844.72;5090992;28;19989;-34
2022/08/14 11:06:27;;;;;;;;;;;;;;;36.90;28.27;100842.00;5091470;28;20026;-42
2022/08/14 11:08:56;;;;;;;;;;;;;;;37.19;28.02;100850.31;5092452;28;19947;-42
2022/08/14 11:11:26;;;;;;;;;;;;;;;37.44;28.22;100837.53;5092168;28;19927;-35
2022/08/14 11:14:05;;;;;;;;;;;;;;;37.65;27.34;100832.84;5091623;28;19920;-33
2022/08/14 11:16:38;;;;;;;;;;;;;;;37.69;26.29;100826.84;5092158;28;19923;-33
2022/08/14 11:19:08;;;;;;;;;;;;;;;37.63;26.79;100826.66;5092780;28;20323;-35
2022/08/14 11:21:39;;;;;;;;;;;;;;;37.63;26.80;100817.94;5091226;28;19927;-33
2022/08/14 11:24:14;;;;;;;;;;;;;;;37.59;26.64;100820.19;5092590;28;19919;-33
2022/08/14 11:27:02;;;;;;;;;;;;;;;37.34;26.45;100829.31;5089127;28;19928;-33
2022/08/14 11:29:30;;;;;;;;;;;;;;;36.97;26.76;100820.53;5092255;28;19927;-35
2022/08/14 11:32:03;;;;;;;;;;;;;;;36.69;27.69;100816.72;5091414;28;19923;-39
2022/08/14 11:34:32;;;;;;;;;;;;;;;36.82;27.89;100822.44;5091584;28;19926;-35
2022/08/14 11:37:07;;;;;;;;;;;;;;;36.85;27.04;100828.09;5091826;28;19919;-33
2022/08/14 11:39:51;;;;;;;;;;;;;;;36.96;27.72;100818.91;5092546;28;20328;-39
2022/08/14 11:42:20;;;;;;;;;;;;;;;36.92;26.89;100812.44;5091142;28;20435;-37
2022/08/14 11:45:09;;;;;;;;;;;;;;;36.95;28.07;100813.56;5095844;28;19928;-33
2022/08/14 11:47:38;;;;;;;;;;;;;;;36.97;27.08;100805.97;5095898;28;20005;-33
2022/08/14 11:50:30;;;;;;;;;;;;;;;36.94;27.46;100804.03;5095200;28;19935;-33
2022/08/14 11:53:04;;;;;;;;;;;;;;;36.98;27.51;100801.75;5096105;28;19920;-33
2022/08/14 11:55:35;;;;;;;;;;;;;;;36.98;29.01;100801.75;5094727;28;19997;-33
2022/08/14 11:58:07;;;;;;;;;;;;;;;37.05;26.96;100801.44;5092939;28;19920;-34
2022/08/14 12:00:45;;;;;;;;;;;;;;;37.25;28.27;100807.63;5095982;28;19920;-39
2022/08/14 12:03:14;;;;;;;;;;;;;;;37.32;27.87;100814.41;5091906;28;20015;-34
2022/08/14 12:05:49;;;;;;;;;;;;;;;37.41;27.60;100811.47;5095763;28;19954;-38
2022/08/14 12:08:17;;;;;;;;;;;;;;;37.22;26.91;100810.69;5093967;28;20438;-32
2022/08/14 12:10:57;;;;;;;;;;;;;;;37.08;27.13;100797.56;5093424;28;19923;-35
2022/08/14 12:13:30;;;;;;;;;;;;;;;36.90;28.38;100788.84;5094884;28;19919;-32
2022/08/14 12:16:02;;;;;;;;;;;;;;;37.02;28.76;100790.78;5095631;28;19923;-33
2022/08/14 12:18:38;;;;;;;;;;;;;;;37.23;27.63;100789.03;5094338;28;20306;-40
2022/08/14 12:21:13;;;;;;;;;;;;;;;37.13;27.83;100782.38;5095430;28;19924;-37
2022/08/14 12:23:46;;;;;;;;;;;;;;;37.23;28.62;100777.38;5093860;28;19989;-33
2022/08/14 12:26:19;;;;;;;;;;;;;;;37.40;28.07;100772.00;5095659;28;19920;-36
2022/08/14 12:29:07;;;;;;;;;;;;;;;37.52;28.02;100773.94;5095415;28;19924;-33
2022/08/14 12:31:36;;;;;;;;;;;;;;;37.45;28.35;100769.25;5094313;28;19920;-33
2022/08/14 12:34:12;;;;;;;;;;;;;;;37.56;28.36;100772.50;5095292;28;20308;-35
2022/08/14 12:36:46;;;;;;;;;;;;;;;37.68;27.35;100776.53;5095153;28;19966;-33
2022/08/14 12:39:17;;;;;;;;;;;;;;;37.76;27.59;100774.91;5093144;28;20018;-34
2022/08/14 12:41:53;;;;;;;;;;;;;;;37.73;27.86;100778.78;5094807;28;19924;-40
2022/08/14 12:44:34;;;;;;;;;;;;;;;37.65;27.06;100771.69;5095192;28;19924;-40
2022/08/14 12:47:02;;;;;;;;;;;;;;;37.55;27.27;100759.22;5095231;28;19925;-33
2022/08/14 12:49:33;;;;;;;;;;;;;;;37.59;28.52;100759.84;5094901;28;19920;-40
2022/08/14 12:52:02;;;;;;;;;;;;;;;37.65;27.41;100754.19;5093852;28;20414;-38
2022/08/14 12:54:30;;;;;;;;;;;;;;;37.46;27.63;100749.69;5093137;28;20395;-38
2022/08/14 12:57:08;;;;;;;;;;;;;;;37.25;28.08;100752.31;5094924;28;19920;-33
2022/08/14 12:59:45;;;;;;;;;;;;;;;37.30;28.13;100729.69;5093763;28;19930;-41
2022/08/14 13:02:21;;;;;;;;;;;;;;;37.38;26.90;100733.84;5094736;28;19920;-37
2022/08/14 13:04:54;;;;;;;;;;;;;;;37.41;28.79;100729.97;5094253;28;20031;-36
2022/08/14 13:07:23;;;;;;;;;;;;;;;37.36;27.75;100724.81;5093495;28;20332;-39
2022/08/14 13:09:54;;;;;;;;;;;;;;;37.44;28.10;100718.16;5094336;28;19920;-40
2022/08/14 13:12:26;;;;;;;;;;;;;;;37.59;27.60;100718.25;5094805;28;19924;-33
2022/08/14 13:15:10;;;;;;;;;;;;;;;37.78;27.59;100716.13;5094353;28;19923;-32
2022/08/14 13:17:43;;;;;;;;;;;;;;;37.81;27.07;100718.88;5094737;28;19943;-32
2022/08/14 13:20:12;;;;;;;;;;;;;;;37.81;27.72;100713.03;5093302;28;19943;-34
2022/08/14 13:22:51;;;;;;;;;;;;;;;37.72;26.46;100707.25;5094428;28;20357;-37
2022/08/14 13:25:20;;;;;;;;;;;;;;;37.63;25.29;100710.16;5093619;28;19923;-32
2022/08/14 13:27:51;;;;;;;;;;;;;;;37.31;26.58;100702.19;5093390;28;20296;-35